Time;durP1;ratioP1;P1;durP2;ratioP2;P2;SDS_P1;SDS_P2;PMS_P1;PMS_P2;Temp;Humidity;BMP_temperature;BMP_pressure;BME280_temperature;BME280_humidity;BME280_pressure;Samples;Min_cycle;Max_cycle;Signal;HPM_P1;HPM_P2
2022/04/11 00:01:54;;;;;;;9.02;4.13;;;3.60;99.90;;;;;;5093277;28;20044;-68
2022/04/11 00:04:20;;;;;;;6.10;3.63;;;3.60;99.90;;;;;;5111642;28;20043;-68
2022/04/11 00:06:45;;;;;;;7.65;3.38;;;3.60;99.90;;;;;;5093178;28;20518;-68
2022/04/11 00:09:11;;;;;;;5.07;3.35;;;3.60;99.90;;;;;;5092788;28;20035;-67
2022/04/11 00:11:36;;;;;;;7.13;3.38;;;3.50;99.90;;;;;;5093058;28;20557;-68
2022/04/11 00:14:04;;;;;;;4.55;3.33;;;3.50;99.90;;;;;;5093116;28;20526;-67
2022/04/11 00:16:30;;;;;;;5.28;3.17;;;3.50;99.90;;;;;;5111404;28;20054;-67
2022/04/11 00:18:56;;;;;;;4.72;2.92;;;3.50;99.90;;;;;;5111104;28;20039;-68
2022/04/11 00:21:22;;;;;;;5.78;2.90;;;3.40;99.90;;;;;;5092826;28;20085;-68
2022/04/11 00:23:47;;;;;;;5.57;3.05;;;3.50;99.90;;;;;;5111364;28;20039;-68
2022/04/11 00:26:13;;;;;;;4.30;3.35;;;3.40;99.90;;;;;;5076145;28;20043;-68
2022/04/11 00:28:38;;;;;;;5.40;3.22;;;3.50;99.90;;;;;;5110939;28;20131;-67
2022/04/11 00:31:04;;;;;;;5.90;3.40;;;3.40;99.90;;;;;;5093043;28;20046;-68
2022/04/11 00:33:29;;;;;;;7.05;3.40;;;3.40;99.90;;;;;;5092928;28;20039;-68
2022/04/11 00:35:55;;;;;;;5.22;3.17;;;3.40;99.90;;;;;;5111248;28;20039;-68
2022/04/11 00:38:21;;;;;;;3.85;2.90;;;3.40;99.90;;;;;;5111034;28;20132;-68
2022/04/11 00:40:46;;;;;;;6.03;3.25;;;3.30;99.90;;;;;;5110848;28;20067;-68
2022/04/11 00:43:31;;;;;;;5.72;3.45;;;3.30;99.90;;;;;;5111198;28;20036;-67
2022/04/11 00:45:57;;;;;;;4.40;3.55;;;3.30;99.90;;;;;;5111177;28;20042;-68
2022/04/11 00:48:23;;;;;;;5.85;3.22;;;3.30;99.90;;;;;;5110898;28;20035;-67
2022/04/11 00:50:49;;;;;;;8.18;4.10;;;3.20;99.90;;;;;;5092488;28;20127;-67
2022/04/11 00:53:15;;;;;;;6.10;3.25;;;3.30;99.90;;;;;;5110842;28;20548;-67
2022/04/11 00:55:42;;;;;;;5.88;4.35;;;3.30;99.90;;;;;;5110927;28;20052;-68
2022/04/11 00:58:07;;;;;;;4.75;3.10;;;3.30;99.90;;;;;;5092908;28;20488;-68
2022/04/11 01:00:34;;;;;;;5.18;3.47;;;3.20;99.90;;;;;;5114420;28;20047;-68
2022/04/11 01:03:00;;;;;;;4.68;3.22;;;3.20;99.90;;;;;;5096513;28;20415;-68
2022/04/11 01:05:25;;;;;;;4.35;3.35;;;3.20;99.90;;;;;;5114768;28;20040;-68
2022/04/11 01:07:51;;;;;;;4.10;3.22;;;3.10;99.90;;;;;;5114641;28;20036;-68
2022/04/11 01:10:17;;;;;;;3.60;2.80;;;3.10;99.90;;;;;;5114313;28;20043;-67
2022/04/11 01:12:43;;;;;;;5.68;3.15;;;3.10;99.90;;;;;;5114728;28;20445;-68
2022/04/11 01:15:09;;;;;;;5.15;2.88;;;3.10;99.90;;;;;;5114697;28;20046;-68
2022/04/11 01:17:35;;;;;;;4.63;3.08;;;3.00;99.90;;;;;;5096303;28;20071;-67
2022/04/11 01:20:12;;;;;;;3.55;2.72;;;3.00;99.90;;;;;;5114155;28;20050;-68
2022/04/11 01:22:41;;;;;;;4.00;3.05;;;2.90;99.90;;;;;;5114000;28;20180;-68
2022/04/11 01:25:07;;;;;;;6.22;3.28;;;2.90;99.90;;;;;;5114401;28;20112;-68
2022/04/11 01:27:33;;;;;;;4.30;2.67;;;2.90;99.90;;;;;;5096123;28;20100;-68
2022/04/11 01:29:59;;;;;;;3.72;2.75;;;2.90;99.90;;;;;;5079050;28;20082;-67
2022/04/11 01:32:25;;;;;;;8.88;3.15;;;2.90;99.90;;;;;;5078891;28;20050;-68
2022/04/11 01:34:50;;;;;;;3.60;2.67;;;3.00;99.90;;;;;;5114222;28;20042;-68
2022/04/11 01:37:16;;;;;;;4.80;2.90;;;2.90;99.90;;;;;;5113761;28;20039;-68
2022/04/11 01:39:41;;;;;;;4.40;2.80;;;2.90;99.90;;;;;;5113490;28;20118;-68
2022/04/11 01:42:07;;;;;;;3.08;2.78;;;2.80;99.90;;;;;;5113965;28;20036;-68
2022/04/11 01:44:33;;;;;;;4.15;2.70;;;2.80;99.90;;;;;;5113898;28;20035;-68
2022/04/11 01:46:58;;;;;;;5.93;2.72;;;2.80;99.90;;;;;;5113964;28;20040;-68
2022/04/11 01:49:24;;;;;;;4.18;2.40;;;2.80;99.90;;;;;;5113702;28;20453;-68
2022/04/11 01:51:50;;;;;;;7.55;2.53;;;2.80;99.90;;;;;;5095175;28;20044;-68
2022/04/11 01:54:16;;;;;;;5.47;2.83;;;2.80;99.90;;;;;;5114110;28;20054;-68
2022/04/11 01:56:41;;;;;;;5.65;2.95;;;2.90;99.90;;;;;;5078870;28;20044;-68
2022/04/11 01:59:07;;;;;;;4.82;2.50;;;2.80;99.90;;;;;;5113434;28;20047;-68
2022/04/11 02:01:32;;;;;;;5.72;2.83;;;2.90;99.90;;;;;;5095364;28;20042;-68
2022/04/11 02:03:58;;;;;;;5.72;2.70;;;2.80;99.90;;;;;;5113442;28;20043;-68
2022/04/11 02:06:23;;;;;;;5.25;2.60;;;2.80;99.90;;;;;;5113336;28;20080;-68
2022/04/11 02:08:49;;;;;;;5.13;2.97;;;2.80;99.90;;;;;;5094743;28;20043;-68
2022/04/11 02:11:14;;;;;;;3.60;2.63;;;2.80;99.90;;;;;;5113168;28;20039;-68
2022/04/11 02:13:41;;;;;;;5.28;2.90;;;2.80;99.90;;;;;;5113470;28;20043;-68
2022/04/11 02:16:06;;;;;;;6.40;3.67;;;2.70;99.90;;;;;;5113473;28;20043;-68
2022/04/11 02:18:32;;;;;;;5.50;2.95;;;2.80;99.90;;;;;;5112869;28;20488;-68
2022/04/11 02:20:58;;;;;;;3.85;2.45;;;2.70;99.90;;;;;;5112933;28;20039;-68
2022/04/11 02:23:23;;;;;;;3.15;2.63;;;2.80;99.90;;;;;;5094838;28;20039;-68
2022/04/11 02:25:49;;;;;;;4.13;2.90;;;2.70;99.90;;;;;;5113013;28;20040;-68
2022/04/11 02:28:14;;;;;;;3.25;2.78;;;2.80;99.90;;;;;;5094826;28;20392;-68
2022/04/11 02:30:40;;;;;;;3.75;2.90;;;2.80;99.90;;;;;;5112856;28;20136;-68
2022/04/11 02:33:05;;;;;;;9.07;3.78;;;2.70;99.90;;;;;;5112919;28;20051;-68
2022/04/11 02:35:31;;;;;;;5.95;3.08;;;2.80;99.90;;;;;;5112872;28;20043;-68
2022/04/11 02:37:57;;;;;;;8.88;3.90;;;2.70;99.90;;;;;;5113041;28;20556;-68
2022/04/11 02:40:23;;;;;;;4.35;2.90;;;2.70;99.90;;;;;;5077454;28;20126;-68
2022/04/11 02:42:48;;;;;;;7.07;3.15;;;2.60;99.90;;;;;;5112838;28;20548;-68
2022/04/11 02:45:15;;;;;;;5.60;3.17;;;2.70;99.90;;;;;;5112813;28;20038;-68
2022/04/11 02:47:41;;;;;;;3.67;3.25;;;2.80;99.90;;;;;;5094199;28;20131;-68
2022/04/11 02:50:07;;;;;;;7.20;3.50;;;2.80;99.90;;;;;;5112402;28;20114;-68
2022/04/11 02:52:33;;;;;;;5.63;3.60;;;2.60;99.90;;;;;;5112558;28;20043;-68
2022/04/11 02:55:00;;;;;;;4.30;3.08;;;2.70;99.90;;;;;;5112714;28;20050;-68
2022/04/11 02:57:26;;;;;;;7.65;4.10;;;2.80;99.90;;;;;;5112441;28;20519;-68
2022/04/11 02:59:52;;;;;;;6.88;3.30;;;2.80;99.90;;;;;;5093836;28;20032;-69
2022/04/11 03:02:18;;;;;;;8.68;3.88;;;2.70;99.90;;;;;;5094097;28;20044;-68
2022/04/11 03:04:45;;;;;;;8.65;4.60;;;2.60;99.90;;;;;;5112400;28;20035;-68
2022/04/11 03:07:10;;;;;;;7.68;4.25;;;2.70;99.90;;;;;;5112519;28;20043;-68
2022/04/11 03:09:36;;;;;;;8.52;4.63;;;2.70;99.90;;;;;;5112284;28;20035;-68
2022/04/11 03:12:02;;;;;;;13.50;4.80;;;2.70;99.90;;;;;;5112284;28;20044;-68
2022/04/11 03:14:27;;;;;;;6.43;3.67;;;2.60;99.90;;;;;;5112340;28;20071;-68
2022/04/11 03:16:53;;;;;;;11.60;4.82;;;2.60;99.90;;;;;;5094063;28;20047;-68
2022/04/11 03:19:19;;;;;;;7.82;4.70;;;2.60;99.90;;;;;;5111662;28;20035;-70
2022/04/11 03:21:45;;;;;;;8.95;4.47;;;2.60;99.90;;;;;;5111175;28;20044;-68
2022/04/11 03:24:11;;;;;;;10.00;4.97;;;2.60;99.90;;;;;;5076895;28;20403;-68
2022/04/11 03:26:37;;;;;;;6.53;4.82;;;2.60;99.90;;;;;;5112209;28;20059;-68
2022/04/11 03:29:02;;;;;;;9.73;4.43;;;2.60;99.90;;;;;;5093460;28;20032;-68
2022/04/11 03:31:28;;;;;;;7.28;4.60;;;2.50;99.90;;;;;;5093450;28;20491;-68
2022/04/11 03:33:54;;;;;;;8.35;4.07;;;2.50;99.90;;;;;;5093560;28;20127;-68
2022/04/11 03:36:21;;;;;;;7.97;4.20;;;2.50;99.90;;;;;;5112022;28;20036;-68
2022/04/11 03:38:47;;;;;;;6.72;4.43;;;2.50;99.90;;;;;;5093297;28;20039;-68
2022/04/11 03:41:12;;;;;;;13.38;4.28;;;2.60;99.90;;;;;;5111641;28;20415;-68
2022/04/11 03:43:38;;;;;;;5.90;3.95;;;2.60;99.90;;;;;;5076388;28;20042;-68
2022/04/11 03:46:03;;;;;;;9.00;5.00;;;2.60;99.90;;;;;;5093433;28;20109;-68
2022/04/11 03:48:29;;;;;;;7.35;4.07;;;2.60;99.90;;;;;;5092808;28;20411;-68
2022/04/11 03:50:54;;;;;;;10.52;4.90;;;2.50;99.90;;;;;;5093179;28;20433;-68
2022/04/11 03:53:20;;;;;;;10.23;4.70;;;2.50;99.90;;;;;;5111538;28;20039;-68
2022/04/11 03:55:45;;;;;;;6.88;4.63;;;2.40;99.90;;;;;;5111755;28;20043;-68
2022/04/11 03:58:11;;;;;;;8.82;4.45;;;2.50;99.90;;;;;;5111613;28;20039;-69
2022/04/11 04:00:37;;;;;;;8.20;4.68;;;2.50;99.90;;;;;;5111154;28;20040;-69
2022/04/11 04:03:10;;;;;;;8.32;5.35;;;2.40;99.90;;;;;;5111315;28;20067;-69
2022/04/11 04:05:44;;;;;;;9.43;5.00;;;2.40;99.90;;;;;;5093304;28;20048;-69
2022/04/11 04:08:10;;;;;;;11.73;5.97;;;2.50;99.90;;;;;;5111591;28;20073;-69
2022/04/11 04:10:36;;;;;;;10.20;4.53;;;2.60;99.90;;;;;;5111244;28;20419;-69
2022/04/11 04:13:05;;;;;;;11.80;5.15;;;2.60;99.90;;;;;;5111225;28;20040;-69
2022/04/11 04:15:30;;;;;;;9.40;4.97;;;2.60;99.90;;;;;;5092963;28;20078;-69
2022/04/11 04:17:56;;;;;;;9.95;5.07;;;2.60;99.90;;;;;;5111505;28;20649;-69
2022/04/11 04:20:25;;;;;;;8.20;4.90;;;2.70;99.90;;;;;;5111112;28;20068;-69
2022/04/11 04:22:52;;;;;;;9.85;5.03;;;2.70;99.90;;;;;;5111222;28;20046;-69
2022/04/11 04:25:17;;;;;;;11.32;5.60;;;2.70;99.90;;;;;;5111368;28;20435;-69
2022/04/11 04:27:43;;;;;;;10.73;4.90;;;2.70;99.90;;;;;;5093036;28;20036;-68
2022/04/11 04:30:09;;;;;;;8.40;5.13;;;2.60;99.90;;;;;;5110809;28;20533;-68
2022/04/11 04:32:34;;;;;;;8.27;4.75;;;2.70;99.90;;;;;;5111004;28;20082;-69
2022/04/11 04:35:01;;;;;;;8.90;4.93;;;2.70;99.90;;;;;;5115555;28;20067;-68
2022/04/11 04:37:27;;;;;;;8.63;4.93;;;2.80;99.90;;;;;;5115521;28;20044;-69
2022/04/11 04:39:52;;;;;;;13.60;5.78;;;2.80;99.90;;;;;;5096871;28;20040;-69
2022/04/11 04:42:26;;;;;;;9.95;5.20;;;2.80;99.90;;;;;;5115141;28;20036;-69
2022/04/11 04:44:52;;;;;;;8.23;4.47;;;2.80;99.90;;;;;;5115189;28;20075;-69
2022/04/11 04:47:17;;;;;;;10.40;5.38;;;2.90;99.90;;;;;;5114859;28;20093;-69
2022/04/11 04:49:44;;;;;;;10.75;5.38;;;2.80;99.90;;;;;;5112577;28;20031;-69
2022/04/11 04:52:10;;;;;;;9.70;6.03;;;2.90;99.90;;;;;;5111870;28;20108;-69
2022/04/11 04:54:36;;;;;;;9.25;5.07;;;2.90;99.90;;;;;;5111945;28;20515;-69
2022/04/11 04:57:02;;;;;;;7.78;4.53;;;2.90;99.90;;;;;;5112783;28;20637;-68
2022/04/11 04:59:28;;;;;;;10.02;4.95;;;2.90;99.90;;;;;;5113927;28;20570;-69
2022/04/11 05:01:54;;;;;;;5.75;3.95;;;2.90;99.90;;;;;;5114139;28;20090;-69
2022/04/11 05:04:19;;;;;;;7.18;4.72;;;2.80;99.90;;;;;;5114452;28;20078;-68
2022/04/11 05:06:45;;;;;;;5.25;4.22;;;2.80;99.90;;;;;;5114361;28;20138;-69
2022/04/11 05:09:10;;;;;;;9.27;4.97;;;2.90;99.90;;;;;;5113872;28;20039;-69
2022/04/11 05:11:36;;;;;;;8.15;4.40;;;2.90;99.90;;;;;;5113097;28;20042;-69
2022/04/11 05:14:02;;;;;;;6.50;4.18;;;2.90;99.90;;;;;;5113688;28;20035;-69
2022/04/11 05:16:27;;;;;;;5.70;4.55;;;3.00;99.90;;;;;;5096291;28;20127;-69
2022/04/11 05:18:53;;;;;;;7.03;4.22;;;3.00;99.90;;;;;;5079061;28;20529;-69
2022/04/11 05:21:18;;;;;;;9.30;4.38;;;3.00;99.90;;;;;;5079145;28;20093;-69
2022/04/11 05:23:44;;;;;;;7.65;4.65;;;3.00;99.90;;;;;;5114460;28;20035;-69
2022/04/11 05:26:10;;;;;;;5.85;4.55;;;3.10;99.90;;;;;;5096227;28;20046;-68
2022/04/11 05:28:35;;;;;;;5.78;4.13;;;3.10;99.90;;;;;;5114036;28;20071;-68
2022/04/11 05:31:01;;;;;;;7.70;4.18;;;3.10;99.90;;;;;;5114516;28;20063;-69
2022/04/11 05:33:27;;;;;;;9.98;4.40;;;3.10;99.90;;;;;;5096004;28;20096;-69
2022/04/11 05:35:54;;;;;;;6.50;4.22;;;3.20;99.90;;;;;;5114336;28;20036;-69
2022/04/11 05:38:19;;;;;;;7.95;4.20;;;3.10;99.90;;;;;;5113909;28;20065;-68
2022/04/11 05:40:46;;;;;;;8.85;4.68;;;3.20;99.90;;;;;;5113792;28;20057;-69
2022/04/11 05:43:13;;;;;;;7.57;4.53;;;3.20;99.90;;;;;;5113892;28;20083;-69
2022/04/11 05:45:39;;;;;;;5.88;4.22;;;3.20;99.90;;;;;;5113252;28;20039;-69
2022/04/11 05:48:05;;;;;;;6.55;4.57;;;3.20;99.90;;;;;;5095617;28;20043;-69
2022/04/11 05:50:31;;;;;;;6.80;3.70;;;3.30;99.90;;;;;;5095669;28;20051;-69
2022/04/11 05:52:56;;;;;;;10.23;4.13;;;3.30;99.90;;;;;;5095125;28;20127;-69
2022/04/11 05:55:23;;;;;;;8.55;3.90;;;3.30;99.90;;;;;;5095792;28;20408;-69
2022/04/11 05:57:49;;;;;;;4.75;3.70;;;3.30;99.90;;;;;;5095409;28;20058;-69
2022/04/11 06:00:15;;;;;;;9.27;4.47;;;3.30;99.90;;;;;;5113384;28;20046;-69
2022/04/11 06:02:41;;;;;;;6.65;4.18;;;3.30;99.90;;;;;;5113698;28;20043;-69
2022/04/11 06:05:07;;;;;;;9.73;4.38;;;3.40;99.90;;;;;;5113707;28;20173;-69
2022/04/11 06:07:33;;;;;;;21.55;4.47;;;3.40;99.90;;;;;;5113486;28;20042;-68
2022/04/11 06:10:02;;;;;;;8.70;4.40;;;3.40;99.90;;;;;;5113423;28;20036;-68
2022/04/11 06:12:28;;;;;;;9.93;5.25;;;3.40;99.90;;;;;;5113058;28;20044;-68
2022/04/11 06:14:54;;;;;;;6.75;4.30;;;3.40;99.90;;;;;;5095301;28;20042;-69
2022/04/11 06:17:26;;;;;;;5.97;3.75;;;3.40;99.90;;;;;;5113662;28;20596;-69
2022/04/11 06:19:52;;;;;;;8.48;4.30;;;3.50;99.90;;;;;;5113099;28;20428;-68
2022/04/11 06:22:19;;;;;;;5.32;3.85;;;3.50;99.90;;;;;;5113072;28;20054;-68
2022/04/11 06:24:45;;;;;;;6.60;4.55;;;3.60;99.90;;;;;;5113149;28;20035;-68
2022/04/11 06:27:11;;;;;;;8.27;4.30;;;3.50;99.90;;;;;;5094870;28;20123;-68
2022/04/11 06:29:36;;;;;;;7.95;4.65;;;3.60;99.90;;;;;;5113060;28;20106;-68
2022/04/11 06:32:04;;;;;;;6.68;4.28;;;3.60;99.90;;;;;;5112656;28;20044;-69
2022/04/11 06:34:34;;;;;;;8.43;4.75;;;3.70;99.90;;;;;;5110972;28;20043;-69
2022/04/11 06:36:59;;;;;;;9.63;4.90;;;3.90;99.90;;;;;;5111287;28;20039;-69
2022/04/11 06:39:25;;;;;;;7.05;4.80;;;3.90;99.90;;;;;;5111771;28;20035;-69
2022/04/11 06:41:51;;;;;;;9.65;5.93;;;4.10;99.90;;;;;;5112250;28;20050;-69
2022/04/11 06:44:16;;;;;;;8.63;5.30;;;4.20;99.90;;;;;;5113061;28;20510;-69
2022/04/11 06:46:42;;;;;;;6.90;4.70;;;4.20;99.90;;;;;;5077819;28;20119;-69
2022/04/11 06:49:08;;;;;;;7.07;5.90;;;4.30;99.90;;;;;;5112550;28;20046;-69
2022/04/11 06:51:33;;;;;;;10.70;5.07;;;4.30;99.90;;;;;;5077386;28;20487;-69
2022/04/11 06:53:59;;;;;;;8.63;5.20;;;4.30;99.90;;;;;;5093993;28;20044;-69
2022/04/11 06:56:25;;;;;;;8.57;4.97;;;4.30;99.90;;;;;;5112784;28;20065;-69
2022/04/11 06:58:50;;;;;;;7.88;5.30;;;4.40;99.90;;;;;;5112218;28;20044;-69
2022/04/11 07:01:16;;;;;;;8.65;4.95;;;4.40;99.90;;;;;;5094154;28;20070;-68
2022/04/11 07:03:42;;;;;;;6.60;4.63;;;4.50;99.90;;;;;;5112363;28;20160;-69
2022/04/11 07:06:08;;;;;;;10.13;5.78;;;4.50;99.90;;;;;;5112647;28;20039;-69
2022/04/11 07:08:34;;;;;;;8.63;4.70;;;4.50;99.90;;;;;;5112214;28;20035;-69
2022/04/11 07:10:59;;;;;;;6.03;5.22;;;4.50;99.90;;;;;;5112461;28;20453;-69
2022/04/11 07:13:26;;;;;;;6.53;5.72;;;4.60;99.90;;;;;;5112299;28;20035;-69
2022/04/11 07:15:51;;;;;;;7.30;5.10;;;4.70;99.90;;;;;;5090031;28;20495;-69
2022/04/11 07:18:19;;;;;;;13.95;5.75;;;4.70;99.90;;;;;;5081079;28;20044;-69
2022/04/11 07:20:45;;;;;;;7.20;5.15;;;4.70;99.90;;;;;;5081047;28;20047;-69
2022/04/11 07:23:11;;;;;;;7.72;5.00;;;4.80;99.90;;;;;;5082534;28;20172;-69
2022/04/11 07:25:37;;;;;;;10.32;5.32;;;4.80;99.90;;;;;;5085730;28;20062;-69
2022/04/11 07:28:03;;;;;;;9.85;5.72;;;5.00;99.90;;;;;;5093151;28;20039;-69
2022/04/11 07:30:29;;;;;;;8.60;5.55;;;5.00;99.90;;;;;;5083556;28;20031;-68
2022/04/11 07:32:54;;;;;;;7.53;5.90;;;5.10;99.90;;;;;;5110925;28;20047;-68
2022/04/11 07:35:20;;;;;;;9.88;5.60;;;5.10;99.90;;;;;;5111786;28;20043;-69
2022/04/11 07:37:46;;;;;;;8.93;5.40;;;5.20;99.90;;;;;;5090780;28;20446;-69
2022/04/11 07:40:12;;;;;;;12.80;6.18;;;5.20;99.90;;;;;;5109996;28;20048;-68
2022/04/11 07:42:37;;;;;;;14.45;5.40;;;5.30;99.90;;;;;;5111739;28;20111;-69
2022/04/11 07:45:04;;;;;;;8.65;5.40;;;5.30;99.90;;;;;;5076441;28;20252;-68
2022/04/11 07:47:29;;;;;;;7.82;6.20;;;5.40;99.90;;;;;;5111294;28;20036;-69
2022/04/11 07:49:55;;;;;;;20.33;6.40;;;5.40;99.90;;;;;;5111501;28;20380;-68
2022/04/11 07:52:21;;;;;;;13.20;5.93;;;5.50;99.90;;;;;;5126919;27;20062;-73
2022/04/11 07:54:47;;;;;;;9.73;6.00;;;5.60;99.90;;;;;;5093045;28;20051;-69
2022/04/11 07:57:13;;;;;;;9.45;6.35;;;5.60;99.90;;;;;;5092956;28;20039;-69
2022/04/11 07:59:39;;;;;;;12.73;7.00;;;5.70;99.90;;;;;;5092467;28;20039;-70
2022/04/11 08:02:05;;;;;;;8.63;5.70;;;5.80;99.90;;;;;;5110904;28;20043;-69
2022/04/11 08:04:32;;;;;;;11.63;6.10;;;5.80;99.90;;;;;;5092839;28;20058;-69
2022/04/11 08:06:58;;;;;;;11.65;6.07;;;5.90;99.90;;;;;;5085566;28;20426;-68
2022/04/11 08:09:23;;;;;;;11.88;6.43;;;6.00;99.90;;;;;;5090474;28;20050;-68
2022/04/11 08:11:49;;;;;;;11.50;6.43;;;6.10;99.90;;;;;;5072977;28;20052;-68
2022/04/11 08:14:16;;;;;;;9.85;6.40;;;6.10;99.90;;;;;;5072845;28;20044;-68
2022/04/11 08:16:42;;;;;;;11.90;6.82;;;6.20;99.90;;;;;;5073025;28;20465;-68
2022/04/11 08:19:07;;;;;;;9.88;6.85;;;6.30;99.90;;;;;;5090774;28;20115;-69
2022/04/11 08:21:33;;;;;;;8.90;6.60;;;6.40;99.90;;;;;;5090659;28;20040;-68
2022/04/11 08:23:58;;;;;;;12.32;6.85;;;6.40;99.90;;;;;;5089650;28;20047;-76
2022/04/11 08:26:24;;;;;;;12.93;6.00;;;6.60;99.90;;;;;;5089559;28;20032;-69
2022/04/11 08:28:49;;;;;;;11.30;6.25;;;6.70;99.90;;;;;;5090608;28;20403;-69
2022/04/11 08:31:15;;;;;;;12.23;7.60;;;6.80;99.90;;;;;;5090759;28;20523;-77
2022/04/11 08:33:40;;;;;;;9.73;6.35;;;6.90;99.90;;;;;;5090325;28;20043;-76
2022/04/11 08:36:06;;;;;;;12.82;6.47;;;7.00;99.90;;;;;;5088368;28;20051;-76
2022/04/11 08:38:32;;;;;;;13.20;8.05;;;7.10;99.90;;;;;;5055556;28;20089;-76
2022/04/11 08:41:02;;;;;;;10.85;7.00;;;7.10;99.90;;;;;;5055662;28;20070;-76
2022/04/11 08:43:27;;;;;;;11.85;6.82;;;7.30;99.90;;;;;;5088321;28;20380;-76
2022/04/11 08:45:54;;;;;;;16.40;7.10;;;7.40;99.90;;;;;;5072030;28;20043;-76
2022/04/11 08:48:22;;;;;;;9.85;6.78;;;7.50;99.90;;;;;;5091935;28;20100;-76
2022/04/11 08:50:48;;;;;;;15.43;6.60;;;7.60;99.90;;;;;;5092279;28;20048;-77
2022/04/11 08:53:14;;;;;;;10.90;6.38;;;7.70;99.90;;;;;;5092590;28;20048;-77
2022/04/11 08:55:39;;;;;;;13.82;7.25;;;7.90;99.90;;;;;;5092756;28;20526;-76
2022/04/11 08:58:05;;;;;;;10.05;7.22;;;8.00;99.90;;;;;;5092679;28;20040;-77
2022/04/11 09:00:31;;;;;;;11.68;6.47;;;8.10;99.90;;;;;;5091973;28;20112;-76
2022/04/11 09:02:57;;;;;;;9.90;6.30;;;8.20;99.90;;;;;;5092692;28;20475;-76
2022/04/11 09:05:25;;;;;;;10.45;6.05;;;8.30;99.90;;;;;;5092574;28;20043;-76
2022/04/11 09:07:55;;;;;;;9.25;5.00;;;8.40;99.90;;;;;;5092626;28;20118;-76
2022/04/11 09:10:32;;;;;;;14.23;4.72;;;8.50;99.90;;;;;;5075540;28;20040;-76
2022/04/11 09:13:04;;;;;;;8.48;5.28;;;8.70;99.90;;;;;;5092431;28;20066;-76
2022/04/11 09:15:41;;;;;;;8.75;5.60;;;8.80;99.90;;;;;;5075963;28;20448;-76
2022/04/11 09:18:07;;;;;;;9.23;4.88;;;8.90;99.90;;;;;;5092517;28;20130;-76
2022/04/11 09:20:32;;;;;;;8.30;4.95;;;9.10;99.90;;;;;;5077530;28;20629;-76
2022/04/11 09:22:58;;;;;;;9.88;5.60;;;9.20;99.90;;;;;;5096056;28;20057;-76
2022/04/11 09:25:29;;;;;;;8.43;5.25;;;9.20;99.90;;;;;;5089368;28;20110;-76
2022/04/11 09:28:07;;;;;;;8.10;5.55;;;9.30;99.90;;;;;;5095760;28;20036;-76
2022/04/11 09:30:34;;;;;;;12.02;6.13;;;9.30;99.90;;;;;;5095640;28;20040;-76
2022/04/11 09:33:01;;;;;;;9.43;5.57;;;9.50;99.90;;;;;;5095835;28;20043;-76
2022/04/11 09:35:29;;;;;;;10.38;5.70;;;9.60;99.90;;;;;;5095927;28;20044;-75
2022/04/11 09:38:11;;;;;;;9.30;5.20;;;9.70;99.90;;;;;;5079263;28;20517;-75
2022/04/11 09:40:44;;;;;;;7.95;5.15;;;9.70;99.90;;;;;;5075326;28;20046;-75
2022/04/11 09:43:12;;;;;;;14.18;5.85;;;9.80;99.90;;;;;;5058728;28;20047;-76
2022/04/11 09:45:48;;;;;;;10.27;5.03;;;10.00;99.90;;;;;;5075620;28;20040;-74
2022/04/11 09:48:35;;;;;;;8.65;5.35;;;9.90;99.90;;;;;;5075603;28;20119;-73
2022/04/11 09:51:07;;;;;;;11.55;5.00;;;10.00;99.90;;;;;;5075621;28;20110;-74
2022/04/11 09:53:34;;;;;;;9.50;5.32;;;10.10;99.90;;;;;;5075273;28;20046;-74
2022/04/11 09:56:08;;;;;;;8.30;5.47;;;10.00;99.90;;;;;;5074961;28;20043;-74
2022/04/11 09:58:35;;;;;;;8.95;5.45;;;10.10;99.90;;;;;;5093304;28;20081;-72
2022/04/11 10:01:03;;;;;;;9.35;5.53;;;10.20;99.90;;;;;;5074845;28;20047;-72
2022/04/11 10:03:29;;;;;;;9.48;5.70;;;10.30;99.80;;;;;;5093189;28;20071;-72
2022/04/11 10:05:56;;;;;;;9.10;5.72;;;10.40;98.70;;;;;;5093511;28;20036;-72
2022/04/11 10:08:26;;;;;;;10.80;5.55;;;10.30;97.50;;;;;;5093234;28;20203;-70
2022/04/11 10:10:54;;;;;;;13.00;6.47;;;10.30;98.10;;;;;;5093291;28;20040;-70
2022/04/11 10:13:20;;;;;;;10.13;6.28;;;10.50;95.30;;;;;;5093129;28;20047;-72
2022/04/11 10:15:48;;;;;;;9.75;6.60;;;10.60;92.50;;;;;;5075230;28;20043;-70
2022/04/11 10:18:18;;;;;;;10.45;5.93;;;10.60;88.60;;;;;;5075220;28;20087;-71
2022/04/11 10:20:49;;;;;;;10.77;5.78;;;10.50;87.60;;;;;;5092881;28;20123;-70
2022/04/11 10:23:25;;;;;;;8.98;5.45;;;10.60;80.00;;;;;;5093077;28;20035;-72
2022/04/11 10:25:54;;;;;;;9.65;6.03;;;10.70;92.70;;;;;;5092977;28;20093;-71
2022/04/11 10:28:25;;;;;;;13.73;6.35;;;10.60;90.40;;;;;;5092716;28;20039;-74
2022/04/11 10:31:11;;;;;;;9.02;6.10;;;10.50;90.80;;;;;;5092795;28;20081;-74
2022/04/11 10:33:43;;;;;;;11.93;6.30;;;10.60;70.10;;;;;;5092773;28;20056;-74
2022/04/11 10:36:32;;;;;;;10.82;6.13;;;10.70;74.50;;;;;;5092789;28;20065;-72
2022/04/11 10:39:16;;;;;;;10.35;6.20;;;10.80;72.50;;;;;;5092508;28;20044;-74
2022/04/11 10:41:57;;;;;;;12.00;6.63;;;10.80;88.50;;;;;;5091184;28;20044;-73
2022/04/11 10:44:35;;;;;;;11.75;6.22;;;11.00;70.30;;;;;;5091174;28;20054;-73
2022/04/11 10:47:10;;;;;;;13.52;6.75;;;11.00;91.80;;;;;;5092238;28;20043;-74
2022/04/11 10:49:58;;;;;;;10.18;6.85;;;10.90;82.30;;;;;;5092266;28;20115;-74
2022/04/11 10:52:31;;;;;;;10.43;6.80;;;10.90;71.40;;;;;;5092195;28;20052;-74
2022/04/11 10:55:03;;;;;;;9.73;6.25;;;11.10;85.40;;;;;;5074013;28;20048;-74
2022/04/11 10:57:37;;;;;;;9.95;6.45;;;11.20;86.70;;;;;;5091758;28;20119;-74
2022/04/11 11:00:17;;;;;;;10.50;6.40;;;11.40;84.30;;;;;;5082916;28;20046;-74
2022/04/11 11:03:00;;;;;;;10.88;6.75;;;11.40;80.40;;;;;;5103593;28;20040;-74
2022/04/11 11:05:29;;;;;;;13.48;7.00;;;11.40;88.20;;;;;;5081311;28;20416;-74
2022/04/11 11:08:07;;;;;;;9.93;6.65;;;11.50;88.50;;;;;;5074382;28;20400;-74
2022/04/11 11:10:42;;;;;;;12.95;6.35;;;11.40;86.60;;;;;;5100448;28;20040;-74
2022/04/11 11:13:30;;;;;;;11.98;6.97;;;11.50;66.30;;;;;;5083074;28;20587;-73
2022/04/11 11:16:00;;;;;;;10.60;6.60;;;11.70;81.40;;;;;;5112097;28;20812;-72
2022/04/11 11:18:27;;;;;;;14.40;7.22;;;11.70;74.70;;;;;;5093759;28;20054;-73
2022/04/11 11:20:54;;;;;;;9.63;6.55;;;11.60;75.50;;;;;;5112049;28;20079;-73
2022/04/11 11:23:31;;;;;;;12.35;7.00;;;11.80;81.30;;;;;;5111774;28;20499;-73
2022/04/11 11:26:08;;;;;;;13.85;7.05;;;11.70;71.50;;;;;;5093770;28;20122;-73
2022/04/11 11:28:33;;;;;;;10.55;6.82;;;12.00;66.80;;;;;;5093580;28;20032;-73
2022/04/11 11:30:59;;;;;;;15.65;7.47;;;11.90;79.10;;;;;;5112113;28;20081;-73
2022/04/11 11:33:26;;;;;;;17.02;7.15;;;11.90;68.40;;;;;;5093681;28;20127;-73
2022/04/11 11:35:54;;;;;;;12.05;7.03;;;11.80;76.80;;;;;;5093948;28;20062;-74
2022/04/11 11:38:25;;;;;;;11.90;7.40;;;11.90;68.50;;;;;;5111571;28;20051;-73
2022/04/11 11:40:55;;;;;;;11.68;7.40;;;12.10;72.30;;;;;;5111775;28;20118;-73
2022/04/11 11:43:22;;;;;;;9.68;7.13;;;12.10;62.70;;;;;;5111144;28;20078;-73
2022/04/11 11:45:48;;;;;;;12.43;8.05;;;12.00;65.60;;;;;;5111782;28;20560;-74
2022/04/11 11:48:25;;;;;;;12.15;7.70;;;12.10;59.80;;;;;;5111658;28;20385;-73
2022/04/11 11:50:51;;;;;;;13.40;7.28;;;12.30;61.20;;;;;;5111616;28;20047;-74
2022/04/11 11:53:18;;;;;;;15.23;8.32;;;12.30;64.40;;;;;;5093257;28;20483;-73
2022/04/11 11:55:57;;;;;;;11.90;7.68;;;12.20;59.40;;;;;;5111859;28;20058;-73
2022/04/11 11:58:36;;;;;;;12.43;8.30;;;12.30;65.50;;;;;;5093162;28;20082;-74
2022/04/11 12:01:03;;;;;;;13.07;7.70;;;12.10;59.10;;;;;;5111525;28;20149;-73
2022/04/11 12:06:25;;;;;;;12.30;7.32;;;12.10;62.70;;;;;;5111686;28;20047;-73
2022/04/11 12:08:58;;;;;;;17.70;7.90;;;12.20;59.30;;;;;;5111287;28;20041;-73
2022/04/11 12:11:26;;;;;;;13.13;8.13;;;12.30;61.10;;;;;;5111462;28;20128;-73
2022/04/11 12:14:07;;;;;;;11.50;8.00;;;12.50;60.70;;;;;;5093370;28;20087;-73
2022/04/11 12:16:35;;;;;;;14.38;8.30;;;12.50;58.00;;;;;;5111572;28;20162;-72
2022/04/11 12:19:03;;;;;;;13.18;8.18;;;12.60;59.50;;;;;;5111168;28;20051;-73
2022/04/11 12:21:37;;;;;;;11.63;7.65;;;12.50;59.60;;;;;;5092890;28;20040;-72
2022/04/11 12:24:05;;;;;;;17.48;8.32;;;12.60;58.20;;;;;;5111396;28;20036;-72
2022/04/11 12:26:33;;;;;;;13.27;8.35;;;12.60;57.90;;;;;;5111285;28;20032;-73
2022/04/11 12:29:10;;;;;;;13.68;8.35;;;12.50;60.30;;;;;;5092934;28;20035;-72
2022/04/11 12:31:39;;;;;;;11.13;8.00;;;12.40;58.40;;;;;;5092899;28;20040;-73
2022/04/11 12:34:13;;;;;;;13.20;7.45;;;12.70;58.50;;;;;;5092877;28;20040;-73
2022/04/11 12:37:00;;;;;;;11.38;7.25;;;12.70;56.50;;;;;;5093068;28;20048;-72
2022/04/11 12:39:25;;;;;;;16.27;7.28;;;12.60;53.40;;;;;;5092705;28;20052;-73
2022/04/11 12:41:51;;;;;;;17.10;8.18;;;12.70;55.80;;;;;;5092632;28;20500;-73
2022/04/11 12:44:18;;;;;;;13.70;7.97;;;12.70;58.20;;;;;;5111296;28;20515;-73
2022/04/11 12:47:03;;;;;;;14.07;8.48;;;12.50;57.60;;;;;;5092765;28;20530;-73
2022/04/11 12:49:52;;;;;;;12.10;7.82;;;12.60;56.60;;;;;;5092581;28;20517;-73
2022/04/11 12:52:23;;;;;;;16.35;8.30;;;12.40;56.70;;;;;;5092315;28;20039;-72
2022/04/11 12:54:51;;;;;;;13.10;8.17;;;12.60;59.50;;;;;;5113433;28;20047;-73
2022/04/11 12:57:26;;;;;;;9.98;7.57;;;12.70;58.00;;;;;;5113927;28;20488;-73